createdAt,value
2019-02-03T00:01:14.915Z,2.4
2019-02-03T00:17:49.060Z,2.4
2019-02-03T00:34:23.220Z,2.4
2019-02-03T00:50:57.337Z,2.4
2019-02-03T01:07:31.476Z,2.4
2019-02-03T01:24:05.607Z,2.4
2019-02-03T01:40:39.827Z,2.4
2019-02-03T01:57:14.384Z,2.4
2019-02-03T02:13:47.991Z,2.1
2019-02-03T02:30:21.923Z,1.8
2019-02-03T02:46:55.664Z,1.4
2019-02-03T03:03:29.185Z,1.1
2019-02-03T03:20:02.575Z,1.1
2019-02-03T03:36:35.975Z,1.1
2019-02-03T03:53:09.269Z,0.8
2019-02-03T04:09:42.541Z,0.8
2019-02-03T04:26:16.529Z,0.8
2019-02-03T04:42:49.343Z,1.1
2019-02-03T04:59:22.741Z,1.1
2019-02-03T05:15:56.619Z,1.4
2019-02-03T05:32:30.456Z,1.8
2019-02-03T05:49:04.247Z,1.8
2019-02-03T06:05:37.913Z,1.8
2019-02-03T06:22:11.829Z,1.8
2019-02-03T06:38:45.715Z,1.8
2019-02-03T06:55:19.666Z,1.8
2019-02-03T07:11:53.533Z,1.8
2019-02-03T07:28:27.435Z,1.8
2019-02-03T07:45:01.306Z,1.8
2019-02-03T08:01:35.049Z,1.4
2019-02-03T08:18:08.680Z,1.4
2019-02-03T08:34:42.540Z,1.8
2019-02-03T08:51:16.464Z,2.1
2019-02-03T09:07:50.523Z,2.4
2019-02-03T09:24:25.053Z,2.7
2019-02-03T09:41:00.528Z,3.0
2019-02-03T09:57:34.949Z,3.4
2019-02-03T10:14:09.871Z,3.7
2019-02-03T10:30:45.036Z,4.0
2019-02-03T10:47:20.552Z,4.3
2019-02-03T11:00:37.117Z,5.0
2019-02-03T11:17:12.963Z,4.6
2019-02-03T11:23:51.440Z,5.3
2019-02-03T11:40:27.781Z,5.6
2019-02-03T11:57:04.321Z,5.6
2019-02-03T12:13:40.599Z,5.6
2019-02-03T12:30:17.307Z,5.9
2019-02-03T12:46:54.016Z,6.2
2019-02-03T13:03:30.627Z,5.9
2019-02-03T13:20:07.719Z,5.9
2019-02-03T13:36:43.751Z,5.6
2019-02-03T13:53:20.233Z,5.6
2019-02-03T14:09:56.786Z,5.6
2019-02-03T14:26:33.195Z,5.6
2019-02-03T14:43:09.577Z,5.6
2019-02-03T14:59:45.885Z,5.0
2019-02-03T15:16:21.759Z,5.0
2019-02-03T15:32:57.546Z,4.6
2019-02-03T15:49:33.413Z,5.0
2019-02-03T16:06:09.315Z,4.6
2019-02-03T16:22:45.101Z,4.3
2019-02-03T16:39:20.601Z,4.0
2019-02-03T16:55:55.920Z,3.7
2019-02-03T17:12:31.097Z,3.7
2019-02-03T17:29:06.237Z,3.4
2019-02-03T17:45:41.249Z,3.4
2019-02-03T18:02:16.250Z,3.0
2019-02-03T18:18:51.051Z,3.0
2019-02-03T18:35:25.792Z,2.7
2019-02-03T18:52:00.317Z,2.4
2019-02-03T19:08:34.799Z,2.4
2019-02-03T19:25:09.336Z,2.4
2019-02-03T19:41:43.313Z,2.4
2019-02-03T19:58:17.219Z,2.4
2019-02-03T20:14:51.299Z,2.4
2019-02-03T20:31:24.923Z,2.4
2019-02-03T20:47:58.866Z,2.1
2019-02-03T21:04:32.670Z,2.1
2019-02-03T21:21:06.401Z,1.8
2019-02-03T21:37:40.351Z,1.4
2019-02-03T21:54:13.226Z,1.4
2019-02-03T22:10:46.626Z,1.1
2019-02-03T22:27:19.875Z,1.1
2019-02-03T22:43:53.107Z,1.1
2019-02-03T23:00:26.268Z,1.1
2019-02-03T23:16:59.519Z,0.8
2019-02-03T23:33:32.616Z,0.8
2019-02-03T23:50:05.669Z,0.8
